createdAt,value
2023-08-31T00:01:39.640Z,99357.00
2023-08-31T00:04:16.585Z,99359.60
2023-08-31T00:06:50.984Z,99359.60
2023-08-31T00:09:25.841Z,99363.20
2023-08-31T00:11:59.854Z,99360.20
2023-08-31T00:14:35.126Z,99358.80
2023-08-31T00:17:29.411Z,99365.80
2023-08-31T00:20:08.884Z,99364.60
2023-08-31T00:22:42.950Z,99364.60
2023-08-31T00:25:17.010Z,99360.80
2023-08-31T00:27:53.687Z,99357.00
2023-08-31T00:30:30.917Z,99358.20
2023-08-31T00:33:06.376Z,99356.00
2023-08-31T00:36:05.075Z,99355.40
2023-08-31T00:38:39.558Z,99356.60
2023-08-31T00:41:19.905Z,99350.60
2023-08-31T00:43:54.062Z,99346.80
2023-08-31T00:46:49.551Z,99343.40
2023-08-31T00:49:25.364Z,99344.40
2023-08-31T00:52:01.719Z,99346.00
2023-08-31T00:54:38.843Z,99348.60
2023-08-31T00:57:12.449Z,99345.80
2023-08-31T00:59:45.948Z,99347.40
2023-08-31T01:02:36.976Z,99350.60
2023-08-31T01:05:27.834Z,99345.80
2023-08-31T01:08:19.712Z,99337.00
2023-08-31T01:11:18.138Z,99336.00
2023-08-31T01:14:10.496Z,99339.00
2023-08-31T01:16:51.305Z,99348.20
2023-08-31T01:19:51.758Z,99352.60
2023-08-31T01:22:42.815Z,99350.40
2023-08-31T01:25:17.466Z,99352.80
2023-08-31T01:27:51.215Z,99353.00
2023-08-31T01:30:24.841Z,99350.60
2023-08-31T01:32:58.720Z,99346.00
2023-08-31T01:35:42.556Z,99345.20
2023-08-31T01:38:27.500Z,99345.40
2023-08-31T01:41:13.193Z,99348.80
2023-08-31T01:43:51.664Z,99348.60
2023-08-31T01:46:26.734Z,99358.00
2023-08-31T01:49:00.278Z,99355.40
2023-08-31T01:51:33.786Z,99350.80
2023-08-31T01:54:08.175Z,99355.20
2023-08-31T01:56:41.820Z,99350.20
2023-08-31T01:59:15.740Z,99354.00
2023-08-31T02:01:49.342Z,99351.80
2023-08-31T02:04:22.905Z,99350.60
2023-08-31T02:06:56.647Z,99349.60
2023-08-31T02:09:30.305Z,99348.80
2023-08-31T02:12:03.964Z,99350.80
2023-08-31T02:14:37.613Z,99350.60
2023-08-31T02:17:11.516Z,99353.40
2023-08-31T02:19:45.113Z,99357.20
2023-08-31T02:22:18.763Z,99355.00
2023-08-31T02:28:03.954Z,99373.60
2023-08-31T02:30:37.480Z,99369.80
2023-08-31T02:33:13.464Z,99368.20
2023-08-31T02:35:47.665Z,99368.00
2023-08-31T02:38:21.311Z,99368.00
2023-08-31T02:40:54.846Z,99363.20
2023-08-31T02:43:29.868Z,99360.40
2023-08-31T02:46:07.642Z,99362.20
2023-08-31T02:48:41.835Z,99364.00
2023-08-31T02:51:15.562Z,99358.60
2023-08-31T02:53:49.925Z,99361.40
2023-08-31T02:56:23.522Z,99354.00
2023-08-31T02:58:57.109Z,99356.80
2023-08-31T03:01:30.791Z,99361.40
2023-08-31T03:04:04.460Z,99361.20
2023-08-31T03:06:38.156Z,99361.20
2023-08-31T03:09:12.045Z,99364.80
2023-08-31T03:12:28.220Z,99356.60
2023-08-31T03:15:37.315Z,99360.80
2023-08-31T03:18:37.925Z,99365.40
2023-08-31T03:21:50.837Z,99360.20
2023-08-31T03:24:50.506Z,99365.60
2023-08-31T03:27:24.930Z,99364.20
2023-08-31T03:29:58.608Z,99363.20
2023-08-31T03:32:32.261Z,99370.20
2023-08-31T03:35:09.593Z,99371.80
2023-08-31T03:37:43.771Z,99373.60
2023-08-31T03:40:17.414Z,99369.00
2023-08-31T03:42:51.726Z,99371.80
2023-08-31T03:45:25.774Z,99370.80
2023-08-31T03:47:59.379Z,99369.60
2023-08-31T03:50:33.217Z,99371.40
2023-08-31T03:53:07.021Z,99375.80
2023-08-31T03:55:41.173Z,99370.60
2023-08-31T03:58:14.993Z,99365.00
2023-08-31T04:00:53.341Z,99359.60
2023-08-31T04:03:27.396Z,99358.80
2023-08-31T04:06:12.997Z,99360.60
2023-08-31T04:08:48.158Z,99357.80
2023-08-31T04:11:22.046Z,99359.60
2023-08-31T04:13:55.695Z,99361.20
2023-08-31T04:16:29.759Z,99361.40
2023-08-31T04:19:03.727Z,99365.80
2023-08-31T04:21:38.340Z,99365.00
2023-08-31T04:24:12.640Z,99367.40
2023-08-31T04:26:49.343Z,99372.00
2023-08-31T04:29:23.216Z,99366.40
2023-08-31T04:31:56.802Z,99367.40
2023-08-31T04:34:30.397Z,99369.60
2023-08-31T04:37:03.984Z,99368.60
2023-08-31T04:39:37.704Z,99366.80
2023-08-31T04:42:11.428Z,99364.20
2023-08-31T04:44:45.015Z,99363.00
2023-08-31T04:47:18.558Z,99369.20
2023-08-31T04:49:52.283Z,99372.80
2023-08-31T04:52:25.920Z,99372.00
2023-08-31T04:54:59.535Z,99368.00
2023-08-31T04:57:33.059Z,99366.60
2023-08-31T05:00:10.332Z,99362.80
2023-08-31T05:02:44.631Z,99367.80
2023-08-31T05:05:21.933Z,99374.20
2023-08-31T05:07:56.043Z,99380.20
2023-08-31T05:10:29.714Z,99384.20
2023-08-31T05:13:04.502Z,99383.40
2023-08-31T05:15:39.648Z,99391.80
2023-08-31T05:18:13.249Z,99394.40
2023-08-31T05:20:49.938Z,99397.60
2023-08-31T05:23:23.443Z,99403.60
2023-08-31T05:25:57.903Z,99410.60
2023-08-31T05:28:33.423Z,99408.00
2023-08-31T05:31:07.626Z,99406.80
2023-08-31T05:33:41.151Z,99410.80
2023-08-31T05:36:14.683Z,99417.80
2023-08-31T05:38:48.346Z,99421.00
2023-08-31T05:41:22.266Z,99418.80
2023-08-31T05:43:55.766Z,99417.00
2023-08-31T05:46:32.343Z,99424.40
2023-08-31T05:49:10.645Z,99422.20
2023-08-31T05:51:46.861Z,99425.40
2023-08-31T05:54:20.513Z,99430.00
2023-08-31T05:56:54.607Z,99424.40
2023-08-31T05:59:30.223Z,99423.60
2023-08-31T06:02:05.879Z,99433.80
2023-08-31T06:04:39.752Z,99439.60
2023-08-31T06:07:13.906Z,99435.80
2023-08-31T06:09:47.872Z,99440.00
2023-08-31T06:12:23.820Z,99441.00
2023-08-31T06:14:57.394Z,99451.80
2023-08-31T06:17:31.372Z,99448.20
2023-08-31T06:20:06.657Z,99449.60
2023-08-31T06:22:43.153Z,99446.40
2023-08-31T06:25:19.710Z,99447.60
2023-08-31T06:27:53.901Z,99451.00
2023-08-31T06:30:36.309Z,99445.20
2023-08-31T06:33:11.085Z,99446.00
2023-08-31T06:36:06.622Z,99449.20
2023-08-31T06:38:55.548Z,99454.20
2023-08-31T06:41:29.728Z,99454.40
2023-08-31T06:44:03.684Z,99457.20
2023-08-31T06:46:39.350Z,99458.40
2023-08-31T06:49:40.562Z,99456.60
2023-08-31T06:52:29.448Z,99463.20
2023-08-31T06:55:06.457Z,99469.40
2023-08-31T06:57:40.355Z,99467.60
2023-08-31T07:00:21.153Z,99472.80
2023-08-31T07:03:09.644Z,99464.60
2023-08-31T07:06:11.277Z,99466.80
2023-08-31T07:08:46.634Z,99473.60
2023-08-31T07:11:25.294Z,99477.00
2023-08-31T07:14:01.027Z,99472.00
2023-08-31T07:16:34.605Z,99470.80
2023-08-31T07:19:10.947Z,99472.40
2023-08-31T07:21:46.109Z,99477.40
2023-08-31T07:24:20.632Z,99481.40
2023-08-31T07:26:54.438Z,99481.40
2023-08-31T07:29:28.022Z,99489.60
2023-08-31T07:32:05.186Z,99490.60
2023-08-31T07:34:38.822Z,99499.80
2023-08-31T07:37:12.530Z,99498.60
2023-08-31T07:39:47.338Z,99499.20
2023-08-31T07:42:21.275Z,99504.40
2023-08-31T07:44:55.365Z,99513.00
2023-08-31T07:47:29.449Z,99515.00
2023-08-31T07:53:31.159Z,99513.20
2023-08-31T07:56:28.273Z,99524.00
2023-08-31T07:59:33.006Z,99527.20
2023-08-31T08:02:10.114Z,99528.40
2023-08-31T08:05:02.489Z,99527.20
2023-08-31T08:07:48.619Z,99522.00
2023-08-31T08:10:34.398Z,99529.60
2023-08-31T08:13:40.661Z,99531.40
2023-08-31T08:17:14.283Z,99535.60
2023-08-31T08:20:44.960Z,99550.80
2023-08-31T08:23:37.294Z,99544.00
2023-08-31T08:26:15.397Z,99554.00
2023-08-31T08:28:49.215Z,99546.00
2023-08-31T08:31:23.535Z,99553.40
2023-08-31T08:33:59.427Z,99550.00
2023-08-31T08:36:41.026Z,99553.60
2023-08-31T08:39:25.144Z,99556.60
2023-08-31T08:42:09.612Z,99563.40
2023-08-31T08:44:46.918Z,99579.00
2023-08-31T08:47:25.351Z,99589.80
2023-08-31T08:50:01.001Z,99593.60
2023-08-31T08:52:37.750Z,99588.60
2023-08-31T08:55:14.373Z,99593.60
2023-08-31T08:57:51.682Z,99597.40
2023-08-31T09:00:27.631Z,99593.20
2023-08-31T09:03:08.707Z,99600.40
2023-08-31T09:05:46.772Z,99597.20
2023-08-31T09:08:27.658Z,99604.60
2023-08-31T09:11:03.353Z,99605.00
2023-08-31T09:13:38.562Z,99612.80
2023-08-31T09:16:49.890Z,99617.00
2023-08-31T09:19:29.456Z,99619.40
2023-08-31T09:22:03.679Z,99625.40
2023-08-31T09:24:54.518Z,99636.80
2023-08-31T09:28:03.303Z,99645.20
2023-08-31T09:30:42.544Z,99651.00
2023-08-31T09:33:22.384Z,99655.60
2023-08-31T09:35:59.395Z,99655.00
2023-08-31T09:38:33.044Z,99664.20
2023-08-31T09:41:10.920Z,99665.40
2023-08-31T09:43:44.976Z,99670.60
2023-08-31T09:46:20.293Z,99676.40
2023-08-31T09:48:55.878Z,99674.40
2023-08-31T09:51:31.611Z,99676.60
2023-08-31T09:54:09.924Z,99682.60
2023-08-31T09:56:48.684Z,99691.20
2023-08-31T09:59:23.744Z,99697.00
2023-08-31T10:01:58.496Z,99703.00
2023-08-31T10:04:44.127Z,99705.60
2023-08-31T10:07:24.141Z,99703.20
2023-08-31T10:10:02.261Z,99702.40
2023-08-31T10:12:40.177Z,99707.80
2023-08-31T10:15:18.266Z,99706.60
2023-08-31T10:17:52.539Z,99707.00
2023-08-31T10:20:29.845Z,99714.80
2023-08-31T10:23:08.906Z,99717.20
2023-08-31T10:26:09.027Z,99715.00
2023-08-31T10:28:47.495Z,99712.20
2023-08-31T10:31:25.344Z,99715.40
2023-08-31T10:34:05.462Z,99712.60
2023-08-31T10:36:55.505Z,99716.00
2023-08-31T11:07:38.334Z,99699.80
2023-08-31T11:10:18.769Z,99698.00
2023-08-31T11:13:00.719Z,99698.20
2023-08-31T11:15:37.337Z,99681.40
2023-08-31T11:18:26.164Z,99687.80
2023-08-31T11:21:23.062Z,99696.60
2023-08-31T11:24:11.684Z,99695.40
2023-08-31T11:27:08.599Z,99693.20
2023-08-31T11:30:01.830Z,99675.00
2023-08-31T11:32:56.294Z,99679.40
2023-08-31T11:39:18.969Z,99665.20
2023-08-31T11:42:57.975Z,99606.40
2023-08-31T11:45:37.735Z,99608.40
2023-08-31T11:48:27.316Z,99602.00
2023-08-31T11:51:04.332Z,99594.20
2023-08-31T11:53:53.089Z,99596.40
2023-08-31T11:56:45.538Z,99590.60
2023-08-31T11:59:33.711Z,99598.20
2023-08-31T12:02:39.138Z,99610.40
2023-08-31T12:05:18.124Z,99612.60
2023-08-31T12:07:59.397Z,99614.80
2023-08-31T12:10:46.964Z,99625.40
2023-08-31T12:13:24.198Z,99664.00
2023-08-31T12:16:03.058Z,99643.40
2023-08-31T12:18:42.105Z,99651.80
2023-08-31T12:21:15.804Z,99648.00
2023-08-31T12:23:52.093Z,99659.80
2023-08-31T12:26:26.236Z,99652.80
2023-08-31T12:29:02.126Z,99648.60
2023-08-31T12:31:36.935Z,99688.60
2023-08-31T12:34:11.186Z,99689.00
2023-08-31T12:36:45.237Z,99677.20
2023-08-31T12:39:21.281Z,99690.80
2023-08-31T12:42:00.604Z,99658.40
2023-08-31T12:44:51.405Z,99670.00
2023-08-31T12:47:25.855Z,99658.20
2023-08-31T12:50:00.155Z,99661.40
2023-08-31T12:52:34.143Z,99652.40
2023-08-31T12:55:08.849Z,99656.40
2023-08-31T12:57:46.316Z,99658.20
2023-08-31T13:00:29.042Z,99663.60
2023-08-31T13:03:16.771Z,99661.40
2023-08-31T13:05:52.164Z,99662.00
2023-08-31T13:08:26.114Z,99687.60
2023-08-31T13:11:00.250Z,99671.60
2023-08-31T13:13:33.730Z,99666.60
2023-08-31T13:16:07.642Z,99693.00
2023-08-31T13:18:41.184Z,99690.40
2023-08-31T13:21:14.787Z,99664.20
2023-08-31T13:23:49.686Z,99691.40
2023-08-31T13:26:25.622Z,99684.80
2023-08-31T13:28:59.372Z,99693.00
2023-08-31T13:31:33.036Z,99691.60
2023-08-31T13:34:08.122Z,99702.40
2023-08-31T13:36:42.559Z,99698.80
2023-08-31T13:39:16.258Z,99658.20
2023-08-31T13:41:49.929Z,99658.60
2023-08-31T13:44:23.895Z,99674.60
2023-08-31T13:46:59.669Z,99663.20
2023-08-31T13:49:33.844Z,99665.80
2023-08-31T13:52:10.553Z,99661.40
2023-08-31T13:54:44.233Z,99696.80
2023-08-31T13:57:18.929Z,99678.20
2023-08-31T13:59:53.944Z,99662.40
2023-08-31T14:02:28.110Z,99662.40
2023-08-31T14:05:03.391Z,99662.40
2023-08-31T14:07:37.313Z,99664.60
2023-08-31T14:10:13.212Z,99672.00
2023-08-31T14:12:50.018Z,99681.60
2023-08-31T14:15:23.880Z,99702.00
2023-08-31T14:17:58.068Z,99684.20
2023-08-31T14:20:31.989Z,99685.80
2023-08-31T14:23:06.020Z,99694.00
2023-08-31T14:25:41.650Z,99683.20
2023-08-31T14:28:15.511Z,99720.00
2023-08-31T14:30:49.283Z,99688.80
2023-08-31T14:33:24.232Z,99703.40
2023-08-31T14:35:57.929Z,99684.60
2023-08-31T14:38:31.666Z,99680.40
2023-08-31T14:41:07.590Z,99683.60
2023-08-31T14:43:41.353Z,99681.40
2023-08-31T14:46:15.005Z,99707.60
2023-08-31T14:48:48.667Z,99721.20
2023-08-31T14:51:22.507Z,99686.80
2023-08-31T14:53:56.371Z,99682.00
2023-08-31T14:56:29.908Z,99686.80
2023-08-31T14:59:03.588Z,99686.20
2023-08-31T15:01:37.296Z,99684.60
2023-08-31T15:04:11.058Z,99674.00
2023-08-31T15:06:44.643Z,99677.00
2023-08-31T15:09:18.196Z,99666.20
2023-08-31T15:11:52.134Z,99666.20
2023-08-31T15:14:25.619Z,99669.80
2023-08-31T15:16:59.892Z,99659.60
2023-08-31T15:19:33.469Z,99662.40
2023-08-31T15:22:07.143Z,99649.00
2023-08-31T15:24:43.903Z,99649.80
2023-08-31T15:27:17.501Z,99644.20
2023-08-31T15:29:51.225Z,99647.20
2023-08-31T15:32:28.865Z,99644.80
2023-08-31T15:35:02.587Z,99644.20
2023-08-31T15:37:37.094Z,99642.60
2023-08-31T15:40:13.315Z,99642.80
2023-08-31T15:42:48.255Z,99650.80
2023-08-31T15:45:22.569Z,99661.00
2023-08-31T15:47:56.242Z,99664.40
2023-08-31T15:50:31.849Z,99663.40
2023-08-31T15:53:13.224Z,99680.20
2023-08-31T15:55:53.153Z,99700.00
2023-08-31T15:58:28.377Z,99716.80
2023-08-31T16:01:04.262Z,99761.60
2023-08-31T16:03:38.498Z,99781.80
2023-08-31T16:06:15.624Z,99779.60
2023-08-31T16:08:52.389Z,99780.00
2023-08-31T16:11:26.140Z,99786.00
2023-08-31T16:14:01.369Z,99788.60
2023-08-31T16:16:35.377Z,99797.40
2023-08-31T16:19:12.519Z,99827.00
2023-08-31T16:21:46.068Z,99856.60
2023-08-31T16:24:20.338Z,99853.20
2023-08-31T16:26:56.747Z,99850.80
2023-08-31T16:29:30.643Z,99853.20
2023-08-31T16:32:06.964Z,99847.00
2023-08-31T16:34:57.266Z,99842.00
2023-08-31T16:37:45.469Z,99842.40
2023-08-31T16:40:20.389Z,99842.80
2023-08-31T16:42:54.070Z,99842.60
2023-08-31T16:45:28.206Z,99850.00
2023-08-31T16:48:03.131Z,99854.60
2023-08-31T16:50:39.074Z,99848.40
2023-08-31T16:53:13.084Z,99844.00
2023-08-31T16:55:47.579Z,99840.00
2023-08-31T16:58:21.793Z,99842.60
2023-08-31T17:00:57.799Z,99844.60
2023-08-31T17:03:33.101Z,99842.60
2023-08-31T17:06:16.765Z,99851.20
2023-08-31T17:08:53.526Z,99854.40
2023-08-31T17:11:27.192Z,99856.00
2023-08-31T17:14:01.824Z,99853.00
2023-08-31T17:16:37.566Z,99857.20
2023-08-31T17:19:11.460Z,99854.80
2023-08-31T17:21:45.128Z,99853.40
2023-08-31T17:24:20.055Z,99854.60
2023-08-31T17:26:53.678Z,99854.20
2023-08-31T17:29:28.307Z,99853.80
2023-08-31T17:32:02.275Z,99857.00
2023-08-31T17:34:35.914Z,99853.20
2023-08-31T17:37:10.466Z,99863.80
2023-08-31T17:39:44.151Z,99863.60
2023-08-31T17:42:17.672Z,99866.00
2023-08-31T17:44:51.703Z,99871.00
2023-08-31T17:47:25.774Z,99872.00
2023-08-31T17:50:00.323Z,99879.80
2023-08-31T17:52:34.507Z,99878.40
2023-08-31T17:55:11.423Z,99877.40
2023-08-31T17:57:46.512Z,99885.40
2023-08-31T18:00:22.535Z,99884.60
2023-08-31T18:02:59.729Z,99887.80
2023-08-31T18:05:33.573Z,99890.80
2023-08-31T18:08:08.125Z,99891.80
2023-08-31T18:10:41.748Z,99898.80
2023-08-31T18:13:15.338Z,99897.80
2023-08-31T18:15:53.887Z,99899.40
2023-08-31T18:18:27.912Z,99901.80
2023-08-31T18:21:05.674Z,99900.80
2023-08-31T18:23:39.332Z,99906.00
2023-08-31T18:26:13.245Z,99906.20
2023-08-31T18:28:46.948Z,99903.60
2023-08-31T18:31:20.579Z,99899.40
2023-08-31T18:33:54.286Z,99891.40
2023-08-31T18:36:27.775Z,99891.60
2023-08-31T18:39:01.452Z,99894.40
2023-08-31T18:41:35.174Z,99889.40
2023-08-31T18:44:09.854Z,99895.40
2023-08-31T18:46:46.952Z,99896.00
2023-08-31T18:49:21.992Z,99892.60
2023-08-31T18:51:55.901Z,99898.20
2023-08-31T18:54:29.851Z,99906.00
2023-08-31T18:57:06.637Z,99901.80
2023-08-31T18:59:40.825Z,99898.60
2023-08-31T19:02:25.238Z,99906.60
2023-08-31T19:04:59.164Z,99904.60
2023-08-31T19:07:33.318Z,99900.60
2023-08-31T19:10:09.192Z,99898.80
2023-08-31T19:12:48.473Z,99893.80
2023-08-31T19:15:23.184Z,99893.00
2023-08-31T19:18:01.319Z,99895.20
2023-08-31T19:20:35.492Z,99898.60
2023-08-31T19:23:09.962Z,99902.60
2023-08-31T19:25:44.466Z,99904.00
2023-08-31T19:28:21.829Z,99904.00
2023-08-31T19:30:56.040Z,99909.20
2023-08-31T19:33:30.269Z,99906.60
2023-08-31T19:36:04.330Z,99911.60
2023-08-31T19:38:39.420Z,99906.40
2023-08-31T19:41:14.592Z,99907.60
2023-08-31T19:43:48.143Z,99909.80
2023-08-31T19:46:21.974Z,99909.80
2023-08-31T19:48:56.263Z,99909.80
2023-08-31T19:51:29.865Z,99912.80
2023-08-31T19:54:05.601Z,99908.60
2023-08-31T19:56:41.097Z,99905.00
2023-08-31T19:59:18.492Z,99909.80
2023-08-31T20:02:02.077Z,99908.80
2023-08-31T20:04:35.900Z,99905.00
2023-08-31T20:07:12.481Z,99903.20
2023-08-31T20:09:46.176Z,99903.40
2023-08-31T20:12:19.956Z,99907.60
2023-08-31T20:14:54.114Z,99911.60
2023-08-31T20:17:30.037Z,99912.60
2023-08-31T20:20:04.315Z,99907.60
2023-08-31T20:22:40.953Z,99908.60
2023-08-31T20:25:15.413Z,99906.00
2023-08-31T20:27:49.021Z,99905.80
2023-08-31T20:30:28.262Z,99903.60
2023-08-31T20:33:01.885Z,99906.40
2023-08-31T20:35:36.509Z,99904.60
2023-08-31T20:38:14.011Z,99910.60
2023-08-31T20:40:48.438Z,99906.40
2023-08-31T20:43:22.141Z,99912.00
2023-08-31T20:58:02.436Z,99968.00
2023-08-31T21:01:26.855Z,99984.20
2023-08-31T21:12:19.901Z,100005.40
2023-08-31T21:14:58.646Z,99989.20
2023-08-31T21:31:52.095Z,99972.80
2023-08-31T21:34:22.045Z,99972.80
2023-08-31T21:36:51.705Z,99978.00
2023-08-31T21:39:21.036Z,99971.60
2023-08-31T21:41:51.739Z,99971.60
2023-08-31T21:44:21.652Z,99974.80
2023-08-31T21:46:51.162Z,99980.60
2023-08-31T21:49:20.558Z,99977.20
2023-08-31T21:51:49.965Z,99978.60
2023-08-31T21:54:19.379Z,99981.00
2023-08-31T21:56:48.739Z,99982.20
2023-08-31T21:59:18.213Z,99988.20
2023-08-31T22:01:47.542Z,99988.80
2023-08-31T22:04:17.658Z,99983.00
2023-08-31T22:06:49.508Z,99992.60
2023-08-31T22:09:20.894Z,99998.40
2023-08-31T22:11:50.235Z,99982.40
2023-08-31T22:14:19.668Z,99992.20
2023-08-31T22:16:49.073Z,99992.00
2023-08-31T22:19:18.713Z,100002.20
2023-08-31T22:21:48.498Z,99995.80
2023-08-31T22:24:17.879Z,99993.80
2023-08-31T22:26:47.335Z,100002.80
2023-08-31T22:29:17.340Z,100003.60
2023-08-31T22:31:46.786Z,100000.40
2023-08-31T22:34:48.694Z,100003.40
2023-08-31T22:37:18.172Z,100008.40
2023-08-31T22:39:47.695Z,100007.00
2023-08-31T22:42:17.376Z,100008.40
2023-08-31T22:44:47.362Z,100011.00
2023-08-31T22:47:17.332Z,100016.80
2023-08-31T22:49:47.516Z,100008.60
2023-08-31T22:52:17.404Z,100011.20
2023-08-31T22:54:46.860Z,100013.20
2023-08-31T22:57:16.418Z,100013.80
2023-08-31T22:59:46.271Z,100012.40
2023-08-31T23:02:17.256Z,100006.60
2023-08-31T23:04:46.986Z,100003.00
2023-08-31T23:07:18.051Z,100009.80
2023-08-31T23:09:48.343Z,100010.40
2023-08-31T23:12:17.962Z,100020.20
2023-08-31T23:14:47.429Z,100024.80
2023-08-31T23:17:16.859Z,100019.40
2023-08-31T23:19:48.073Z,100027.20
2023-08-31T23:22:17.837Z,100016.80
2023-08-31T23:24:47.785Z,100017.80
2023-08-31T23:27:17.174Z,100013.40
2023-08-31T23:29:46.565Z,100012.00
2023-08-31T23:32:16.216Z,100016.40
2023-08-31T23:34:46.437Z,100014.40
2023-08-31T23:37:15.777Z,100021.40
2023-08-31T23:39:45.147Z,100023.60
2023-08-31T23:42:14.805Z,100022.80
2023-08-31T23:44:44.257Z,100025.60
2023-08-31T23:47:13.617Z,100025.40
2023-08-31T23:49:42.943Z,100026.00
2023-08-31T23:52:12.324Z,100026.00
2023-08-31T23:54:41.874Z,100017.60
2023-08-31T23:57:11.781Z,100012.80
2023-08-31T23:59:41.657Z,100017.20
